createdAt,value
2024-05-09T00:00:01.249Z,446.44
2024-05-09T00:00:18.171Z,446.44
2024-05-09T00:00:29.754Z,446.40
2024-05-09T00:00:38.914Z,446.45
2024-05-09T00:00:42.650Z,446.40
2024-05-09T00:00:51.306Z,446.45
2024-05-09T00:01:01.335Z,446.40
2024-05-09T00:01:21.331Z,446.46
2024-05-09T00:01:31.355Z,446.47
2024-05-09T00:01:41.362Z,446.42
2024-05-09T00:01:51.278Z,446.43
2024-05-09T00:02:01.371Z,446.50
2024-05-09T00:02:11.308Z,446.51
2024-05-09T00:02:21.312Z,446.45
2024-05-09T00:02:31.431Z,446.49
2024-05-09T00:02:51.325Z,446.55
2024-05-09T00:03:01.289Z,446.51
2024-05-09T00:03:12.114Z,446.56
2024-05-09T00:03:21.317Z,446.51
2024-05-09T00:03:31.409Z,446.57
2024-05-09T00:03:41.446Z,446.54
2024-05-09T00:03:51.352Z,446.53
2024-05-09T00:04:01.325Z,446.60
2024-05-09T00:04:11.341Z,446.59
2024-05-09T00:04:21.293Z,446.55
2024-05-09T00:04:31.307Z,446.57
2024-05-09T00:04:51.331Z,446.65
2024-05-09T00:05:01.432Z,446.60
2024-05-09T00:05:11.713Z,446.70
2024-05-09T00:05:21.427Z,446.71
2024-05-09T00:05:31.337Z,446.69
2024-05-09T00:05:41.605Z,446.69
2024-05-09T00:05:51.315Z,446.76
2024-05-09T00:06:11.341Z,446.73
2024-05-09T00:06:21.284Z,446.78
2024-05-09T00:06:31.289Z,446.70
2024-05-09T00:06:41.266Z,446.77
2024-05-09T00:06:51.270Z,446.73
2024-05-09T00:07:01.266Z,446.83
2024-05-09T00:07:11.284Z,446.76
2024-05-09T00:07:21.275Z,446.79
2024-05-09T00:07:41.272Z,446.85
2024-05-09T00:07:51.297Z,446.82
2024-05-09T00:08:01.452Z,446.87
2024-05-09T00:08:11.625Z,446.83
2024-05-09T00:08:21.346Z,446.88
2024-05-09T00:08:31.403Z,446.88
2024-05-09T00:08:41.329Z,446.88
2024-05-09T00:08:51.279Z,446.83
2024-05-09T00:09:01.275Z,446.88
2024-05-09T00:09:11.281Z,446.90
2024-05-09T00:09:21.285Z,446.84
2024-05-09T00:09:31.280Z,446.91
2024-05-09T00:09:41.307Z,446.86
2024-05-09T00:09:51.297Z,446.92
2024-05-09T00:10:01.279Z,446.86
2024-05-09T00:10:18.294Z,446.90
2024-05-09T00:10:29.127Z,446.87
2024-05-09T00:10:36.225Z,446.91
2024-05-09T00:10:42.292Z,446.89
2024-05-09T00:10:51.330Z,446.82
2024-05-09T00:11:01.372Z,446.88
2024-05-09T00:11:11.458Z,446.83
2024-05-09T00:11:31.445Z,446.89
2024-05-09T00:11:41.466Z,446.81
2024-05-09T00:11:51.350Z,446.83
2024-05-09T00:12:01.457Z,446.89
2024-05-09T00:12:11.424Z,446.83
2024-05-09T00:12:21.488Z,446.82
2024-05-09T00:12:31.351Z,446.89
2024-05-09T00:12:41.292Z,446.84
2024-05-09T00:12:51.289Z,446.80
2024-05-09T00:13:01.290Z,446.79
2024-05-09T00:13:21.294Z,446.79
2024-05-09T00:13:31.301Z,446.86
2024-05-09T00:13:41.293Z,446.80
2024-05-09T00:13:51.367Z,446.78
2024-05-09T00:14:01.335Z,446.84
2024-05-09T00:14:11.372Z,446.82
2024-05-09T00:14:21.358Z,446.83
2024-05-09T00:14:31.352Z,446.79
2024-05-09T00:14:41.302Z,446.82
2024-05-09T00:15:01.335Z,446.82
2024-05-09T00:15:11.339Z,446.75
2024-05-09T00:15:21.311Z,446.84
2024-05-09T00:15:31.306Z,446.76
2024-05-09T00:15:41.313Z,446.82
2024-05-09T00:15:51.306Z,446.76
2024-05-09T00:16:01.306Z,446.81
2024-05-09T00:16:21.324Z,446.77
2024-05-09T00:16:31.311Z,446.82
2024-05-09T00:16:41.313Z,446.79
2024-05-09T00:16:51.388Z,446.71
2024-05-09T00:17:01.342Z,446.81
2024-05-09T00:17:11.350Z,446.73
2024-05-09T00:17:21.509Z,446.80
2024-05-09T00:17:31.554Z,446.83
2024-05-09T00:17:41.587Z,446.74
2024-05-09T00:17:51.551Z,446.82
2024-05-09T00:18:01.721Z,446.76
2024-05-09T00:18:11.471Z,446.82
2024-05-09T00:18:31.418Z,446.86
2024-05-09T00:18:41.439Z,446.82
2024-05-09T00:18:51.453Z,446.87
2024-05-09T00:19:01.444Z,446.83
2024-05-09T00:19:11.558Z,446.85
2024-05-09T00:19:21.461Z,446.79
2024-05-09T00:19:31.379Z,446.89
2024-05-09T00:19:41.321Z,446.85
2024-05-09T00:20:01.456Z,446.92
2024-05-09T00:20:17.716Z,446.93
2024-05-09T00:20:28.400Z,446.90
2024-05-09T00:20:37.779Z,446.90
2024-05-09T00:20:42.363Z,446.92
2024-05-09T00:20:51.485Z,446.97
2024-05-09T00:21:01.510Z,446.97
2024-05-09T00:21:21.337Z,446.94
2024-05-09T00:21:31.328Z,446.99
2024-05-09T00:21:41.337Z,447.00
2024-05-09T00:21:51.337Z,446.93
2024-05-09T00:22:01.336Z,447.00
2024-05-09T00:22:11.345Z,447.01
2024-05-09T00:22:21.337Z,447.05
2024-05-09T00:22:31.452Z,447.01
2024-05-09T00:22:41.339Z,447.07
2024-05-09T00:22:51.394Z,447.02
2024-05-09T00:23:01.440Z,447.03
2024-05-09T00:23:12.544Z,447.04
2024-05-09T00:23:21.387Z,447.06
2024-05-09T00:23:41.362Z,447.15
2024-05-09T00:23:51.344Z,447.12
2024-05-09T00:24:01.368Z,447.10
2024-05-09T00:24:11.343Z,447.11
2024-05-09T00:24:21.349Z,447.17
2024-05-09T00:24:31.359Z,447.15
2024-05-09T00:24:41.366Z,447.10
2024-05-09T00:24:51.337Z,447.15
2024-05-09T00:25:01.362Z,447.15
2024-05-09T00:25:11.366Z,447.09
2024-05-09T00:25:21.352Z,447.17
2024-05-09T00:25:31.354Z,447.12
2024-05-09T00:25:41.371Z,447.18
2024-05-09T00:25:51.486Z,447.18
2024-05-09T00:26:01.382Z,447.13
2024-05-09T00:26:11.386Z,447.21
2024-05-09T00:26:21.415Z,447.15
2024-05-09T00:26:31.387Z,447.20
2024-05-09T00:26:51.361Z,447.15
2024-05-09T00:27:01.383Z,447.18
2024-05-09T00:27:13.346Z,447.15
2024-05-09T00:27:21.355Z,447.19
2024-05-09T00:27:31.389Z,447.14
2024-05-09T00:27:41.370Z,447.17
2024-05-09T00:27:51.360Z,447.16
2024-05-09T00:28:11.358Z,447.15
2024-05-09T00:28:21.384Z,447.09
2024-05-09T00:28:31.360Z,447.13
2024-05-09T00:28:41.366Z,447.05
2024-05-09T00:28:52.418Z,447.11
2024-05-09T00:29:01.391Z,447.09
2024-05-09T00:29:11.396Z,447.06
2024-05-09T00:29:21.435Z,447.10
2024-05-09T00:29:31.451Z,447.11
2024-05-09T00:29:41.404Z,447.08
2024-05-09T00:30:01.367Z,447.09
2024-05-09T00:30:17.543Z,447.02
2024-05-09T00:30:31.571Z,447.08
2024-05-09T00:30:35.442Z,447.02
2024-05-09T00:30:41.481Z,447.07
2024-05-09T00:30:51.398Z,447.01
2024-05-09T00:31:01.378Z,447.04
2024-05-09T00:31:11.375Z,447.07
2024-05-09T00:31:31.381Z,447.00
2024-05-09T00:31:41.379Z,446.95
2024-05-09T00:31:51.437Z,447.00
2024-05-09T00:32:01.523Z,446.97
2024-05-09T00:32:11.473Z,446.92
2024-05-09T00:32:21.648Z,447.01
2024-05-09T00:32:31.586Z,446.99
2024-05-09T00:32:41.552Z,446.93
2024-05-09T00:32:51.762Z,446.99
2024-05-09T00:33:01.619Z,446.92
2024-05-09T00:33:11.944Z,446.99
2024-05-09T00:33:21.653Z,446.92
2024-05-09T00:33:31.525Z,446.90
2024-05-09T00:33:41.601Z,446.94
2024-05-09T00:33:51.671Z,446.89
2024-05-09T00:34:01.691Z,446.89
2024-05-09T00:34:21.599Z,446.94
2024-05-09T00:34:31.490Z,446.87
2024-05-09T00:34:41.393Z,446.88
2024-05-09T00:34:51.451Z,446.82
2024-05-09T00:35:01.515Z,446.81
2024-05-09T00:35:11.415Z,446.86
2024-05-09T00:35:31.490Z,446.90
2024-05-09T00:35:41.504Z,446.84
2024-05-09T00:35:51.394Z,446.89
2024-05-09T00:36:01.394Z,446.86
2024-05-09T00:36:11.400Z,446.94
2024-05-09T00:36:21.397Z,446.88
2024-05-09T00:36:41.425Z,446.92
2024-05-09T00:36:51.397Z,446.98
2024-05-09T00:37:01.396Z,446.95
2024-05-09T00:37:11.397Z,447.02
2024-05-09T00:37:21.401Z,447.04
2024-05-09T00:37:31.405Z,447.03
2024-05-09T00:37:41.416Z,447.08
2024-05-09T00:37:51.457Z,447.04
2024-05-09T00:38:01.650Z,447.06
2024-05-09T00:38:11.564Z,447.06
2024-05-09T00:38:21.486Z,447.15
2024-05-09T00:38:31.584Z,447.11
2024-05-09T00:38:51.398Z,447.14
2024-05-09T00:39:01.406Z,447.21
2024-05-09T00:39:11.420Z,447.20
2024-05-09T00:39:21.412Z,447.29
2024-05-09T00:39:31.432Z,447.23
2024-05-09T00:39:41.413Z,447.27
2024-05-09T00:39:51.412Z,447.30
2024-05-09T00:40:01.411Z,447.34
2024-05-09T00:40:18.336Z,447.33
2024-05-09T00:40:30.653Z,447.40
2024-05-09T00:40:38.723Z,447.40
2024-05-09T00:40:43.623Z,447.39
2024-05-09T00:40:51.447Z,447.40
2024-05-09T00:41:01.487Z,447.48
2024-05-09T00:41:12.377Z,447.46
2024-05-09T00:41:31.435Z,447.49
2024-05-09T00:41:41.498Z,447.48
2024-05-09T00:41:51.437Z,447.50
2024-05-09T00:42:01.426Z,447.58
2024-05-09T00:42:11.416Z,447.55
2024-05-09T00:42:21.428Z,447.62
2024-05-09T00:42:31.417Z,447.58
2024-05-09T00:42:41.441Z,447.68
2024-05-09T00:42:51.425Z,447.68
2024-05-09T00:43:01.447Z,447.65
2024-05-09T00:43:12.284Z,447.66
2024-05-09T00:43:21.432Z,447.74
2024-05-09T00:43:31.511Z,447.69
2024-05-09T00:43:51.480Z,447.74
2024-05-09T00:44:01.456Z,447.78
2024-05-09T00:44:11.534Z,447.78
2024-05-09T00:44:21.449Z,447.75
2024-05-09T00:44:31.487Z,447.80
2024-05-09T00:44:41.432Z,447.73
2024-05-09T00:44:51.441Z,447.82
2024-05-09T00:45:01.438Z,447.82
2024-05-09T00:45:21.451Z,447.77
2024-05-09T00:45:31.439Z,447.81
2024-05-09T00:45:41.449Z,447.78
2024-05-09T00:45:51.442Z,447.78
2024-05-09T00:46:01.450Z,447.83
2024-05-09T00:46:11.467Z,447.80
2024-05-09T00:46:21.448Z,447.83
2024-05-09T00:46:31.450Z,447.78
2024-05-09T00:46:41.443Z,447.84
2024-05-09T00:46:51.475Z,447.83
2024-05-09T00:47:01.466Z,447.85
2024-05-09T00:47:11.506Z,447.84
2024-05-09T00:47:31.584Z,447.82
2024-05-09T00:47:41.537Z,447.88
2024-05-09T00:47:51.887Z,447.81
2024-05-09T00:48:01.662Z,447.85
2024-05-09T00:48:13.926Z,447.81
2024-05-09T00:48:21.817Z,447.88
2024-05-09T00:48:31.606Z,447.88
2024-05-09T00:48:51.496Z,447.85
2024-05-09T00:49:01.613Z,447.89
2024-05-09T00:49:11.538Z,447.92
2024-05-09T00:49:21.748Z,447.93
2024-05-09T00:49:31.562Z,447.86
2024-05-09T00:49:41.558Z,447.92
2024-05-09T00:49:51.519Z,447.89
2024-05-09T00:50:01.572Z,447.93
2024-05-09T00:50:16.019Z,447.88
2024-05-09T00:50:29.467Z,447.89
2024-05-09T00:50:36.224Z,447.92
2024-05-09T00:50:42.627Z,447.86
2024-05-09T00:50:51.499Z,447.86
2024-05-09T00:51:01.605Z,447.91
2024-05-09T00:51:11.595Z,447.84
2024-05-09T00:51:31.461Z,447.85
2024-05-09T00:51:41.478Z,447.79
2024-05-09T00:51:51.468Z,447.81
2024-05-09T00:52:01.488Z,447.79
2024-05-09T00:52:11.488Z,447.84
2024-05-09T00:52:21.467Z,447.86
2024-05-09T00:52:31.530Z,447.81
2024-05-09T00:52:41.474Z,447.85
2024-05-09T00:52:51.496Z,447.87
2024-05-09T00:53:01.548Z,447.79
2024-05-09T00:53:21.556Z,447.86
2024-05-09T00:53:31.584Z,447.87
2024-05-09T00:53:41.498Z,447.84
2024-05-09T00:53:51.469Z,447.86
2024-05-09T00:54:01.462Z,447.89
2024-05-09T00:54:11.468Z,447.85
2024-05-09T00:54:31.494Z,447.89
2024-05-09T00:54:41.464Z,447.89
2024-05-09T00:54:51.478Z,447.84
2024-05-09T00:55:01.478Z,447.90
2024-05-09T00:55:11.484Z,447.86
2024-05-09T00:55:21.482Z,447.87
2024-05-09T00:55:41.483Z,447.90
2024-05-09T00:55:51.535Z,447.87
2024-05-09T00:56:01.504Z,447.96
2024-05-09T00:56:11.514Z,447.93
2024-05-09T00:56:21.504Z,447.98
2024-05-09T00:56:31.645Z,447.92
2024-05-09T00:56:41.485Z,447.97
2024-05-09T00:56:51.523Z,447.98
2024-05-09T00:57:01.506Z,447.94
2024-05-09T00:57:11.496Z,447.99
2024-05-09T00:57:31.511Z,448.00
2024-05-09T00:57:41.489Z,447.96
2024-05-09T00:57:51.488Z,448.03
2024-05-09T00:58:01.487Z,447.98
2024-05-09T00:58:11.504Z,448.00
2024-05-09T00:58:21.506Z,447.94
2024-05-09T00:58:41.501Z,447.90
2024-05-09T00:58:51.542Z,447.98
2024-05-09T00:59:01.566Z,447.92
2024-05-09T00:59:11.537Z,447.96
2024-05-09T00:59:21.653Z,447.89
2024-05-09T00:59:31.617Z,447.87
2024-05-09T00:59:41.615Z,447.93
2024-05-09T00:59:51.505Z,447.90
2024-05-09T01:00:01.497Z,447.84
2024-05-09T01:00:22.410Z,447.90
2024-05-09T01:00:30.746Z,447.82
2024-05-09T01:00:38.658Z,447.84
2024-05-09T01:00:42.635Z,447.81
2024-05-09T01:00:51.528Z,447.82
2024-05-09T01:01:01.618Z,447.77
2024-05-09T01:01:11.570Z,447.76
2024-05-09T01:01:31.566Z,447.75
2024-05-09T01:01:41.614Z,447.77
2024-05-09T01:01:51.614Z,447.78
2024-05-09T01:02:01.633Z,447.74
2024-05-09T01:02:11.579Z,447.74
2024-05-09T01:02:21.595Z,447.67
2024-05-09T01:02:31.702Z,447.73
2024-05-09T01:02:41.609Z,447.65
2024-05-09T01:03:01.811Z,447.71
2024-05-09T01:03:13.546Z,447.64
2024-05-09T01:03:22.220Z,447.65
2024-05-09T01:03:31.707Z,447.69
2024-05-09T01:03:41.647Z,447.63
2024-05-09T01:03:51.882Z,447.70
2024-05-09T01:04:01.634Z,447.64
2024-05-09T01:04:11.691Z,447.69
2024-05-09T01:04:21.631Z,447.65
2024-05-09T01:04:31.529Z,447.70
2024-05-09T01:04:41.553Z,447.67
2024-05-09T01:04:51.710Z,447.70
2024-05-09T01:05:01.624Z,447.67
2024-05-09T01:05:11.616Z,447.67
2024-05-09T01:05:21.535Z,447.67
2024-05-09T01:05:31.578Z,447.75
2024-05-09T01:05:42.174Z,447.70
2024-05-09T01:05:51.674Z,447.76
2024-05-09T01:06:01.618Z,447.71
2024-05-09T01:06:11.522Z,447.75
2024-05-09T01:06:21.528Z,447.72
2024-05-09T01:06:31.548Z,447.69
2024-05-09T01:06:41.529Z,447.73
2024-05-09T01:06:51.523Z,447.70
2024-05-09T01:07:01.535Z,447.71
2024-05-09T01:07:11.538Z,447.76
2024-05-09T01:07:21.530Z,447.73
2024-05-09T01:07:31.529Z,447.78
2024-05-09T01:07:41.578Z,447.77
2024-05-09T01:07:51.552Z,447.73
2024-05-09T01:08:01.582Z,447.80
2024-05-09T01:08:11.930Z,447.75
2024-05-09T01:08:21.721Z,447.74
2024-05-09T01:08:31.635Z,447.79
2024-05-09T01:08:52.375Z,447.80
2024-05-09T01:09:01.547Z,447.75
2024-05-09T01:09:11.537Z,447.79
2024-05-09T01:09:21.549Z,447.80
2024-05-09T01:09:31.550Z,447.76
2024-05-09T01:09:41.547Z,447.77
2024-05-09T01:10:01.573Z,447.82
2024-05-09T01:10:17.140Z,447.79
2024-05-09T01:10:28.291Z,447.73
2024-05-09T01:10:35.041Z,447.80
2024-05-09T01:10:51.634Z,447.83
2024-05-09T01:11:01.818Z,447.77
2024-05-09T01:11:11.659Z,447.85
2024-05-09T01:11:31.618Z,447.83
2024-05-09T01:11:41.650Z,447.79
2024-05-09T01:11:51.646Z,447.80
2024-05-09T01:12:01.728Z,447.87
2024-05-09T01:12:11.809Z,447.86
2024-05-09T01:12:21.644Z,447.86
2024-05-09T01:12:31.653Z,447.80
2024-05-09T01:12:41.551Z,447.87
2024-05-09T01:12:51.559Z,447.78
2024-05-09T01:13:01.567Z,447.86
2024-05-09T01:13:21.561Z,447.85
2024-05-09T01:13:31.566Z,447.85
2024-05-09T01:13:41.560Z,447.83
2024-05-09T01:13:51.586Z,447.77
2024-05-09T01:14:01.588Z,447.83
2024-05-09T01:14:11.670Z,447.77
2024-05-09T01:14:21.623Z,447.80
2024-05-09T01:14:41.575Z,447.80
2024-05-09T01:14:51.611Z,447.75
2024-05-09T01:15:01.617Z,447.79
2024-05-09T01:15:11.576Z,447.71
2024-05-09T01:15:21.567Z,447.81
2024-05-09T01:15:31.568Z,447.76
2024-05-09T01:15:41.573Z,447.81
2024-05-09T01:15:52.375Z,447.76
2024-05-09T01:16:01.571Z,447.81
2024-05-09T01:16:11.575Z,447.79
2024-05-09T01:16:21.591Z,447.82
2024-05-09T01:16:31.579Z,447.77
2024-05-09T01:16:41.588Z,447.79
2024-05-09T01:17:01.612Z,447.78
2024-05-09T01:17:11.673Z,447.82
2024-05-09T01:17:21.718Z,447.81
2024-05-09T01:17:31.857Z,447.84
2024-05-09T01:17:41.804Z,447.81
2024-05-09T01:17:51.821Z,447.75
2024-05-09T01:18:01.915Z,447.84
2024-05-09T01:18:12.914Z,447.78
2024-05-09T01:18:31.711Z,447.79
2024-05-09T01:18:41.679Z,447.83
2024-05-09T01:18:51.761Z,447.82
2024-05-09T01:19:01.633Z,447.80
2024-05-09T01:19:11.703Z,447.75
2024-05-09T01:19:21.763Z,447.74
2024-05-09T01:19:31.789Z,447.73
2024-05-09T01:19:41.631Z,447.78
2024-05-09T01:19:51.637Z,447.73
2024-05-09T01:20:01.647Z,447.79
2024-05-09T01:20:19.808Z,447.72
2024-05-09T01:20:31.844Z,447.73
2024-05-09T01:20:40.883Z,447.81
2024-05-09T01:20:44.738Z,447.76
2024-05-09T01:20:51.704Z,447.82
2024-05-09T01:21:01.735Z,447.79
2024-05-09T01:21:21.668Z,447.78
2024-05-09T01:21:31.601Z,447.84
2024-05-09T01:21:41.601Z,447.79
2024-05-09T01:21:51.598Z,447.86
2024-05-09T01:22:01.622Z,447.80
2024-05-09T01:22:11.599Z,447.84
2024-05-09T01:22:21.635Z,447.86
2024-05-09T01:22:31.605Z,447.87
2024-05-09T01:22:41.669Z,447.82
2024-05-09T01:22:51.676Z,447.92
2024-05-09T01:23:01.662Z,447.85
2024-05-09T01:23:12.137Z,447.92
2024-05-09T01:23:21.719Z,447.91
2024-05-09T01:23:31.763Z,447.93
2024-05-09T01:23:51.641Z,447.95
2024-05-09T01:24:01.624Z,448.01
2024-05-09T01:24:11.610Z,447.95
2024-05-09T01:24:21.617Z,448.03
2024-05-09T01:24:31.635Z,448.07
2024-05-09T01:24:41.614Z,448.02
2024-05-09T01:24:51.611Z,448.07
2024-05-09T01:25:01.681Z,448.03
2024-05-09T01:25:11.613Z,448.10
2024-05-09T01:25:21.614Z,448.08
2024-05-09T01:25:31.619Z,448.14
2024-05-09T01:25:41.617Z,448.08
2024-05-09T01:25:51.675Z,448.15
2024-05-09T01:26:11.726Z,448.14
2024-05-09T01:26:21.753Z,448.15
2024-05-09T01:26:31.693Z,448.19
2024-05-09T01:26:41.691Z,448.14
2024-05-09T01:26:51.623Z,448.17
2024-05-09T01:27:01.660Z,448.22
2024-05-09T01:27:11.630Z,448.16
2024-05-09T01:27:21.624Z,448.13
2024-05-09T01:27:31.626Z,448.19
2024-05-09T01:27:41.636Z,448.18
2024-05-09T01:28:01.665Z,448.16
2024-05-09T01:28:11.617Z,448.10
2024-05-09T01:28:21.626Z,448.13
2024-05-09T01:28:31.628Z,448.10
2024-05-09T01:28:41.637Z,448.16
2024-05-09T01:28:51.692Z,448.09
2024-05-09T01:29:11.666Z,448.10
2024-05-09T01:29:21.691Z,448.08
2024-05-09T01:29:31.680Z,448.11
2024-05-09T01:29:41.634Z,448.04
2024-05-09T01:29:51.631Z,448.03
2024-05-09T01:30:01.652Z,448.05
2024-05-09T01:30:17.204Z,448.05
2024-05-09T01:30:31.253Z,448.00
2024-05-09T01:30:35.734Z,448.02
2024-05-09T01:30:41.677Z,447.97
2024-05-09T01:31:01.642Z,447.94
2024-05-09T01:31:11.636Z,447.93
2024-05-09T01:31:21.636Z,447.84
2024-05-09T01:31:31.689Z,447.89
2024-05-09T01:31:41.664Z,447.80
2024-05-09T01:31:51.744Z,447.78
2024-05-09T01:32:01.795Z,447.79
2024-05-09T01:32:11.729Z,447.85
2024-05-09T01:32:21.903Z,447.84
2024-05-09T01:32:31.884Z,447.76
2024-05-09T01:32:41.843Z,447.83
2024-05-09T01:32:51.850Z,447.75
2024-05-09T01:33:12.729Z,447.75
2024-05-09T01:33:21.816Z,447.80
2024-05-09T01:33:31.993Z,447.70
2024-05-09T01:33:41.875Z,447.76
2024-05-09T01:33:51.887Z,447.77
2024-05-09T01:34:01.737Z,447.70
2024-05-09T01:34:21.725Z,447.72
2024-05-09T01:34:31.655Z,447.64
2024-05-09T01:34:41.662Z,447.69
2024-05-09T01:34:51.827Z,447.67
2024-05-09T01:35:01.755Z,447.63
2024-05-09T01:35:11.708Z,447.65
2024-05-09T01:35:21.870Z,447.65
2024-05-09T01:35:31.688Z,447.56
2024-05-09T01:35:42.783Z,447.63
2024-05-09T01:35:51.668Z,447.56
2024-05-09T01:36:01.672Z,447.52
2024-05-09T01:36:11.656Z,447.58
2024-05-09T01:36:21.662Z,447.51
2024-05-09T01:36:31.676Z,447.55
2024-05-09T01:36:41.670Z,447.50
2024-05-09T01:36:51.664Z,447.55
2024-05-09T01:37:01.670Z,447.52
2024-05-09T01:37:11.689Z,447.53
2024-05-09T01:37:21.676Z,447.46
2024-05-09T01:37:31.653Z,447.50
2024-05-09T01:37:41.686Z,447.46
2024-05-09T01:37:51.725Z,447.46
2024-05-09T01:38:01.762Z,447.50
2024-05-09T01:38:11.718Z,447.46
2024-05-09T01:38:21.771Z,447.49
2024-05-09T01:38:31.817Z,447.49
2024-05-09T01:38:51.689Z,447.50
2024-05-09T01:39:01.675Z,447.53
2024-05-09T01:39:11.701Z,447.57
2024-05-09T01:39:21.672Z,447.52
2024-05-09T01:39:31.703Z,447.54
2024-05-09T01:39:41.676Z,447.55
2024-05-09T01:40:01.687Z,447.57
2024-05-09T01:40:15.382Z,447.63
2024-05-09T01:40:29.285Z,447.65
2024-05-09T01:40:37.412Z,447.63
2024-05-09T01:40:42.718Z,447.64
2024-05-09T01:40:51.801Z,447.60
2024-05-09T01:41:01.730Z,447.71
2024-05-09T01:41:11.699Z,447.74
2024-05-09T01:41:31.742Z,447.78
2024-05-09T01:41:41.695Z,447.79
2024-05-09T01:41:51.701Z,447.77
2024-05-09T01:42:01.723Z,447.82
2024-05-09T01:42:11.737Z,447.86
2024-05-09T01:42:21.712Z,447.79
2024-05-09T01:42:31.680Z,447.86
2024-05-09T01:42:41.721Z,447.89
2024-05-09T01:42:51.703Z,447.81
2024-05-09T01:43:12.286Z,447.93
2024-05-09T01:43:21.704Z,447.86
2024-05-09T01:43:31.699Z,447.95
2024-05-09T01:43:41.695Z,447.90
2024-05-09T01:43:51.737Z,447.99
2024-05-09T01:44:01.735Z,447.93
2024-05-09T01:44:11.753Z,448.01
2024-05-09T01:44:21.747Z,448.02
2024-05-09T01:44:31.734Z,447.98
2024-05-09T01:44:41.743Z,448.05
2024-05-09T01:44:51.709Z,447.99
2024-05-09T01:45:11.709Z,448.04
2024-05-09T01:45:21.706Z,448.04
2024-05-09T01:45:31.768Z,448.06
2024-05-09T01:45:41.857Z,448.06
2024-05-09T01:45:51.716Z,448.12
2024-05-09T01:46:02.521Z,448.12
2024-05-09T01:46:11.706Z,448.05
2024-05-09T01:46:21.719Z,448.07
2024-05-09T01:46:31.713Z,448.12
2024-05-09T01:46:41.707Z,448.10
2024-05-09T01:46:51.733Z,448.05
2024-05-09T01:47:11.887Z,448.04
2024-05-09T01:47:21.837Z,448.08
2024-05-09T01:47:31.910Z,448.04
2024-05-09T01:47:42.061Z,448.07
2024-05-09T01:47:51.820Z,448.01
2024-05-09T01:48:02.548Z,448.07
2024-05-09T01:48:11.946Z,448.04
2024-05-09T01:48:21.886Z,448.00
2024-05-09T01:48:31.849Z,448.00
2024-05-09T01:48:51.766Z,448.02
2024-05-09T01:49:01.845Z,448.05
2024-05-09T01:49:11.858Z,448.01
2024-05-09T01:49:21.880Z,447.99
2024-05-09T01:49:31.775Z,448.05
2024-05-09T01:49:41.787Z,448.03
2024-05-09T01:49:51.795Z,448.04
2024-05-09T01:50:01.820Z,447.97
2024-05-09T01:50:16.314Z,448.02
2024-05-09T01:50:33.083Z,447.98
2024-05-09T01:50:38.882Z,448.02
2024-05-09T01:50:43.458Z,447.97
2024-05-09T01:50:51.845Z,448.01
2024-05-09T01:51:01.796Z,448.02
2024-05-09T01:51:11.938Z,448.00
2024-05-09T01:51:21.767Z,448.03
2024-05-09T01:51:41.747Z,448.01
2024-05-09T01:51:51.728Z,448.04
2024-05-09T01:52:01.735Z,447.98
2024-05-09T01:52:11.727Z,448.02
2024-05-09T01:52:21.751Z,448.02
2024-05-09T01:52:31.751Z,448.00
2024-05-09T01:52:41.732Z,447.96
2024-05-09T01:52:51.857Z,447.99
2024-05-09T01:53:12.049Z,448.01
2024-05-09T01:53:21.857Z,447.93
2024-05-09T01:53:31.844Z,447.95
2024-05-09T01:53:41.750Z,448.04
2024-05-09T01:53:51.750Z,447.96
2024-05-09T01:54:01.751Z,447.98
2024-05-09T01:54:11.754Z,448.04
2024-05-09T01:54:21.761Z,448.05
2024-05-09T01:54:41.737Z,448.05
2024-05-09T01:54:51.749Z,448.00
2024-05-09T01:55:05.664Z,448.05
2024-05-09T01:55:11.756Z,448.04
2024-05-09T01:55:21.739Z,448.03
2024-05-09T01:55:31.745Z,447.98
2024-05-09T01:55:41.754Z,448.04
2024-05-09T01:55:51.782Z,448.03
2024-05-09T01:56:01.802Z,448.01
2024-05-09T01:56:21.795Z,448.00
2024-05-09T01:56:31.842Z,447.94
2024-05-09T01:56:41.834Z,447.93
2024-05-09T01:56:51.758Z,447.96
2024-05-09T01:57:01.734Z,447.94
2024-05-09T01:57:11.756Z,447.95
2024-05-09T01:57:21.743Z,447.93
2024-05-09T01:57:32.391Z,447.95
2024-05-09T01:57:41.757Z,447.91
2024-05-09T01:58:01.785Z,447.92
2024-05-09T01:58:11.755Z,447.91
2024-05-09T01:58:21.760Z,447.95
2024-05-09T01:58:31.753Z,447.91
2024-05-09T01:58:41.767Z,447.93
2024-05-09T01:58:51.828Z,447.98
2024-05-09T01:59:01.835Z,447.98
2024-05-09T01:59:11.877Z,447.96
2024-05-09T01:59:21.892Z,447.90
2024-05-09T01:59:31.833Z,447.98
2024-05-09T01:59:41.881Z,447.93
2024-05-09T01:59:51.827Z,447.99
2024-05-09T02:00:01.772Z,447.91
2024-05-09T02:00:30.285Z,447.93
2024-05-09T02:00:38.589Z,448.01
2024-05-09T02:00:43.636Z,447.94
2024-05-09T02:01:01.805Z,448.04
2024-05-09T02:01:11.825Z,448.04
2024-05-09T02:01:21.788Z,447.98
2024-05-09T02:01:55.296Z,448.00
2024-05-09T02:01:56.163Z,448.09
2024-05-09T02:01:56.893Z,448.01
2024-05-09T02:02:02.925Z,448.12
2024-05-09T02:02:11.983Z,448.06
2024-05-09T02:02:21.896Z,448.13
2024-05-09T02:02:31.813Z,448.09
2024-05-09T02:02:51.897Z,448.20
2024-05-09T02:03:02.195Z,448.19
2024-05-09T02:03:14.583Z,448.14
2024-05-09T02:03:22.969Z,448.24
2024-05-09T02:03:31.931Z,448.20
2024-05-09T02:03:41.893Z,448.25
2024-05-09T02:03:52.067Z,448.22
2024-05-09T02:04:02.213Z,448.29
2024-05-09T02:04:31.914Z,448.31
2024-05-09T02:04:41.955Z,448.35
2024-05-09T02:04:51.854Z,448.33
2024-05-09T02:05:01.906Z,448.32
2024-05-09T02:05:12.064Z,448.34
2024-05-09T02:05:21.851Z,448.39
2024-05-09T02:05:31.899Z,448.35
2024-05-09T02:05:41.839Z,448.41
2024-05-09T02:05:51.820Z,448.37
2024-05-09T02:06:02.033Z,448.41
2024-05-09T02:06:21.806Z,448.39
2024-05-09T02:06:31.806Z,448.41
2024-05-09T02:06:41.805Z,448.40
2024-05-09T02:06:51.807Z,448.41
2024-05-09T02:07:01.800Z,448.38
2024-05-09T02:07:11.857Z,448.36
2024-05-09T02:07:21.807Z,448.36
2024-05-09T02:07:31.808Z,448.41
2024-05-09T02:07:41.848Z,448.38
2024-05-09T02:07:51.827Z,448.41
2024-05-09T02:08:01.884Z,448.39
2024-05-09T02:08:22.219Z,448.40
2024-05-09T02:08:32.068Z,448.42
2024-05-09T02:08:41.888Z,448.44
2024-05-09T02:08:51.811Z,448.46
2024-05-09T02:09:02.367Z,448.42
2024-05-09T02:09:11.813Z,448.41
2024-05-09T02:09:21.807Z,448.47
2024-05-09T02:09:31.817Z,448.44
2024-05-09T02:09:41.811Z,448.49
2024-05-09T02:09:51.819Z,448.43
2024-05-09T02:10:16.658Z,448.45
2024-05-09T02:10:26.639Z,448.44
2024-05-09T02:10:33.525Z,448.42
2024-05-09T02:10:41.887Z,448.44
2024-05-09T02:10:51.973Z,448.40
2024-05-09T02:11:01.988Z,448.44
2024-05-09T02:11:12.157Z,448.38
2024-05-09T02:11:31.843Z,448.33
2024-05-09T02:11:41.934Z,448.33
2024-05-09T02:11:51.911Z,448.37
2024-05-09T02:12:02.066Z,448.35
2024-05-09T02:12:12.027Z,448.33
2024-05-09T02:12:21.942Z,448.39
2024-05-09T02:12:31.944Z,448.34
2024-05-09T02:12:41.830Z,448.40
2024-05-09T02:12:51.840Z,448.41
2024-05-09T02:13:01.860Z,448.35
2024-05-09T02:13:11.845Z,448.41
2024-05-09T02:13:31.830Z,448.44
2024-05-09T02:13:41.896Z,448.43
2024-05-09T02:13:51.866Z,448.45
2024-05-09T02:14:01.871Z,448.38
2024-05-09T02:14:11.885Z,448.46
2024-05-09T02:14:21.929Z,448.40
2024-05-09T02:14:31.872Z,448.39
2024-05-09T02:14:51.838Z,448.40
2024-05-09T02:15:01.837Z,448.42
2024-05-09T02:15:11.825Z,448.42
2024-05-09T02:15:21.836Z,448.48
2024-05-09T02:15:31.834Z,448.43
2024-05-09T02:15:41.832Z,448.49
2024-05-09T02:15:51.859Z,448.46
2024-05-09T02:16:11.841Z,448.45
2024-05-09T02:16:21.838Z,448.53
2024-05-09T02:16:31.858Z,448.44
2024-05-09T02:16:41.854Z,448.43
2024-05-09T02:16:51.895Z,448.51
2024-05-09T02:17:01.872Z,448.45